sensor_id;sensor_type;location;lat;lon;timestamp;P1;durP1;ratioP1;P2;durP2;ratioP2
72647;SDS011;60693;50.002;8.644;2022-08-21T00:01:10;12.43;;;4.40;;
72647;SDS011;60693;50.002;8.644;2022-08-21T00:03:38;13.35;;;5.07;;
72647;SDS011;60693;50.002;8.644;2022-08-21T00:06:05;11.30;;;4.40;;
72647;SDS011;60693;50.002;8.644;2022-08-21T00:08:30;10.73;;;4.33;;
72647;SDS011;60693;50.002;8.644;2022-08-21T00:10:56;11.60;;;4.00;;
72647;SDS011;60693;50.002;8.644;2022-08-21T00:13:22;13.43;;;5.18;;
72647;SDS011;60693;50.002;8.644;2022-08-21T00:15:48;13.17;;;4.80;;
72647;SDS011;60693;50.002;8.644;2022-08-21T00:18:14;11.30;;;5.20;;
72647;SDS011;60693;50.002;8.644;2022-08-21T00:20:40;12.75;;;4.32;;
72647;SDS011;60693;50.002;8.644;2022-08-21T00:23:07;11.85;;;4.88;;
72647;SDS011;60693;50.002;8.644;2022-08-21T00:25:32;12.35;;;5.00;;
72647;SDS011;60693;50.002;8.644;2022-08-21T00:27:58;11.53;;;5.40;;
72647;SDS011;60693;50.002;8.644;2022-08-21T00:30:25;14.63;;;5.03;;
72647;SDS011;60693;50.002;8.644;2022-08-21T00:32:52;11.43;;;4.20;;
72647;SDS011;60693;50.002;8.644;2022-08-21T00:35:20;10.23;;;4.20;;
72647;SDS011;60693;50.002;8.644;2022-08-21T00:37:48;11.40;;;4.78;;
72647;SDS011;60693;50.002;8.644;2022-08-21T00:40:15;14.32;;;4.88;;
72647;SDS011;60693;50.002;8.644;2022-08-21T00:42:44;13.15;;;5.18;;
72647;SDS011;60693;50.002;8.644;2022-08-21T00:45:10;13.23;;;4.80;;
72647;SDS011;60693;50.002;8.644;2022-08-21T00:47:36;11.35;;;4.40;;
72647;SDS011;60693;50.002;8.644;2022-08-21T00:50:03;10.15;;;4.35;;
72647;SDS011;60693;50.002;8.644;2022-08-21T00:52:30;11.27;;;4.90;;
72647;SDS011;60693;50.002;8.644;2022-08-21T00:54:58;10.82;;;4.60;;
72647;SDS011;60693;50.002;8.644;2022-08-21T00:57:29;13.65;;;4.93;;
72647;SDS011;60693;50.002;8.644;2022-08-21T01:00:08;11.00;;;4.97;;
72647;SDS011;60693;50.002;8.644;2022-08-21T01:02:36;13.00;;;5.10;;
72647;SDS011;60693;50.002;8.644;2022-08-21T01:05:03;11.37;;;4.57;;
72647;SDS011;60693;50.002;8.644;2022-08-21T01:07:29;8.70;;;4.18;;
72647;SDS011;60693;50.002;8.644;2022-08-21T01:09:55;13.03;;;4.80;;
72647;SDS011;60693;50.002;8.644;2022-08-21T01:12:21;13.38;;;5.30;;
72647;SDS011;60693;50.002;8.644;2022-08-21T01:14:47;11.97;;;4.73;;
72647;SDS011;60693;50.002;8.644;2022-08-21T01:17:13;11.55;;;5.10;;
72647;SDS011;60693;50.002;8.644;2022-08-21T01:19:39;12.18;;;5.85;;
72647;SDS011;60693;50.002;8.644;2022-08-21T01:22:05;11.43;;;4.70;;
72647;SDS011;60693;50.002;8.644;2022-08-21T01:24:31;12.40;;;4.90;;
72647;SDS011;60693;50.002;8.644;2022-08-21T01:26:58;10.37;;;5.20;;
72647;SDS011;60693;50.002;8.644;2022-08-21T01:29:50;12.85;;;5.43;;
72647;SDS011;60693;50.002;8.644;2022-08-21T01:32:18;12.88;;;4.88;;
72647;SDS011;60693;50.002;8.644;2022-08-21T01:34:45;9.98;;;5.05;;
72647;SDS011;60693;50.002;8.644;2022-08-21T01:37:13;12.57;;;4.80;;
72647;SDS011;60693;50.002;8.644;2022-08-21T01:39:39;14.00;;;5.37;;
72647;SDS011;60693;50.002;8.644;2022-08-21T01:42:05;13.23;;;5.57;;
72647;SDS011;60693;50.002;8.644;2022-08-21T01:44:31;11.68;;;5.05;;
72647;SDS011;60693;50.002;8.644;2022-08-21T01:46:58;12.65;;;5.50;;
72647;SDS011;60693;50.002;8.644;2022-08-21T01:49:25;11.87;;;5.53;;
72647;SDS011;60693;50.002;8.644;2022-08-21T01:51:51;13.20;;;5.53;;
72647;SDS011;60693;50.002;8.644;2022-08-21T01:54:17;13.60;;;5.50;;
72647;SDS011;60693;50.002;8.644;2022-08-21T01:56:44;11.88;;;5.63;;
72647;SDS011;60693;50.002;8.644;2022-08-21T01:59:12;12.57;;;5.68;;
72647;SDS011;60693;50.002;8.644;2022-08-21T02:01:38;14.15;;;6.35;;
72647;SDS011;60693;50.002;8.644;2022-08-21T02:04:07;12.50;;;5.37;;
72647;SDS011;60693;50.002;8.644;2022-08-21T02:06:33;11.23;;;5.50;;
72647;SDS011;60693;50.002;8.644;2022-08-21T02:09:00;12.45;;;6.20;;
72647;SDS011;60693;50.002;8.644;2022-08-21T02:11:27;13.43;;;6.13;;
72647;SDS011;60693;50.002;8.644;2022-08-21T02:13:52;11.63;;;5.50;;
72647;SDS011;60693;50.002;8.644;2022-08-21T02:16:18;12.68;;;6.28;;
72647;SDS011;60693;50.002;8.644;2022-08-21T02:18:44;12.60;;;5.50;;
72647;SDS011;60693;50.002;8.644;2022-08-21T02:21:09;12.30;;;5.50;;
72647;SDS011;60693;50.002;8.644;2022-08-21T02:23:35;13.40;;;5.47;;
72647;SDS011;60693;50.002;8.644;2022-08-21T02:26:02;15.38;;;5.90;;
72647;SDS011;60693;50.002;8.644;2022-08-21T02:28:32;13.23;;;5.82;;
72647;SDS011;60693;50.002;8.644;2022-08-21T02:30:58;13.48;;;5.32;;
72647;SDS011;60693;50.002;8.644;2022-08-21T02:33:24;11.23;;;5.20;;
72647;SDS011;60693;50.002;8.644;2022-08-21T02:35:51;13.38;;;5.82;;
72647;SDS011;60693;50.002;8.644;2022-08-21T02:38:19;12.90;;;5.28;;
72647;SDS011;60693;50.002;8.644;2022-08-21T02:40:48;13.55;;;5.70;;
72647;SDS011;60693;50.002;8.644;2022-08-21T02:43:15;12.43;;;5.20;;
72647;SDS011;60693;50.002;8.644;2022-08-21T02:45:42;12.67;;;5.50;;
72647;SDS011;60693;50.002;8.644;2022-08-21T02:48:09;11.65;;;4.93;;
72647;SDS011;60693;50.002;8.644;2022-08-21T02:50:37;16.20;;;5.57;;
72647;SDS011;60693;50.002;8.644;2022-08-21T02:53:05;12.90;;;5.38;;
72647;SDS011;60693;50.002;8.644;2022-08-21T02:55:33;13.70;;;6.75;;
72647;SDS011;60693;50.002;8.644;2022-08-21T02:58:00;12.77;;;5.53;;
72647;SDS011;60693;50.002;8.644;2022-08-21T03:00:26;16.63;;;7.53;;
72647;SDS011;60693;50.002;8.644;2022-08-21T03:02:54;13.23;;;6.25;;
72647;SDS011;60693;50.002;8.644;2022-08-21T03:05:21;11.90;;;5.27;;
72647;SDS011;60693;50.002;8.644;2022-08-21T03:07:48;13.65;;;5.50;;
72647;SDS011;60693;50.002;8.644;2022-08-21T03:10:14;12.68;;;5.93;;
72647;SDS011;60693;50.002;8.644;2022-08-21T03:12:41;15.13;;;6.30;;
72647;SDS011;60693;50.002;8.644;2022-08-21T03:15:08;15.02;;;6.07;;
72647;SDS011;60693;50.002;8.644;2022-08-21T03:17:35;13.90;;;6.57;;
72647;SDS011;60693;50.002;8.644;2022-08-21T03:20:03;12.70;;;5.75;;
72647;SDS011;60693;50.002;8.644;2022-08-21T03:22:29;14.10;;;5.38;;
72647;SDS011;60693;50.002;8.644;2022-08-21T03:24:55;12.30;;;5.40;;
72647;SDS011;60693;50.002;8.644;2022-08-21T03:27:22;12.52;;;5.70;;
72647;SDS011;60693;50.002;8.644;2022-08-21T03:29:50;12.63;;;5.97;;
72647;SDS011;60693;50.002;8.644;2022-08-21T03:32:16;14.40;;;6.00;;
72647;SDS011;60693;50.002;8.644;2022-08-21T03:34:41;14.32;;;5.93;;
72647;SDS011;60693;50.002;8.644;2022-08-21T03:37:07;13.43;;;6.00;;
72647;SDS011;60693;50.002;8.644;2022-08-21T03:39:33;12.93;;;5.93;;
72647;SDS011;60693;50.002;8.644;2022-08-21T03:42:00;16.10;;;5.75;;
72647;SDS011;60693;50.002;8.644;2022-08-21T03:44:26;15.27;;;6.60;;
72647;SDS011;60693;50.002;8.644;2022-08-21T03:46:55;13.67;;;5.87;;
72647;SDS011;60693;50.002;8.644;2022-08-21T03:49:21;12.80;;;5.63;;
72647;SDS011;60693;50.002;8.644;2022-08-21T03:51:47;13.30;;;5.57;;
72647;SDS011;60693;50.002;8.644;2022-08-21T03:54:13;17.55;;;5.90;;
72647;SDS011;60693;50.002;8.644;2022-08-21T03:56:38;13.80;;;5.53;;
72647;SDS011;60693;50.002;8.644;2022-08-21T03:59:04;14.60;;;5.57;;
72647;SDS011;60693;50.002;8.644;2022-08-21T04:01:31;11.43;;;5.20;;
72647;SDS011;60693;50.002;8.644;2022-08-21T04:03:56;13.82;;;5.75;;
72647;SDS011;60693;50.002;8.644;2022-08-21T04:06:22;12.93;;;5.80;;
72647;SDS011;60693;50.002;8.644;2022-08-21T04:08:48;12.88;;;5.50;;
72647;SDS011;60693;50.002;8.644;2022-08-21T04:11:14;10.90;;;5.50;;
72647;SDS011;60693;50.002;8.644;2022-08-21T04:13:40;14.40;;;6.28;;
72647;SDS011;60693;50.002;8.644;2022-08-21T04:16:06;12.27;;;5.43;;
72647;SDS011;60693;50.002;8.644;2022-08-21T04:18:32;12.57;;;5.40;;
72647;SDS011;60693;50.002;8.644;2022-08-21T04:20:58;13.70;;;5.87;;
72647;SDS011;60693;50.002;8.644;2022-08-21T04:23:24;13.80;;;5.65;;
72647;SDS011;60693;50.002;8.644;2022-08-21T04:25:51;16.05;;;6.15;;
72647;SDS011;60693;50.002;8.644;2022-08-21T04:28:18;12.43;;;5.37;;
72647;SDS011;60693;50.002;8.644;2022-08-21T04:30:44;12.23;;;5.57;;
72647;SDS011;60693;50.002;8.644;2022-08-21T04:33:09;14.50;;;5.57;;
72647;SDS011;60693;50.002;8.644;2022-08-21T04:35:35;12.57;;;5.37;;
72647;SDS011;60693;50.002;8.644;2022-08-21T04:38:01;14.88;;;6.07;;
72647;SDS011;60693;50.002;8.644;2022-08-21T04:40:27;10.77;;;5.53;;
72647;SDS011;60693;50.002;8.644;2022-08-21T04:42:54;14.13;;;5.90;;
72647;SDS011;60693;50.002;8.644;2022-08-21T04:45:26;13.10;;;5.65;;
72647;SDS011;60693;50.002;8.644;2022-08-21T04:47:55;12.73;;;5.72;;
72647;SDS011;60693;50.002;8.644;2022-08-21T04:50:27;15.33;;;5.40;;
72647;SDS011;60693;50.002;8.644;2022-08-21T04:53:07;12.68;;;5.95;;
72647;SDS011;60693;50.002;8.644;2022-08-21T04:55:37;12.32;;;5.25;;
72647;SDS011;60693;50.002;8.644;2022-08-21T04:58:06;12.00;;;5.57;;
72647;SDS011;60693;50.002;8.644;2022-08-21T05:00:34;12.00;;;5.15;;
72647;SDS011;60693;50.002;8.644;2022-08-21T05:03:00;14.73;;;5.50;;
72647;SDS011;60693;50.002;8.644;2022-08-21T05:05:29;14.45;;;5.53;;
72647;SDS011;60693;50.002;8.644;2022-08-21T05:07:55;12.02;;;5.35;;
72647;SDS011;60693;50.002;8.644;2022-08-21T05:10:22;12.48;;;4.97;;
72647;SDS011;60693;50.002;8.644;2022-08-21T05:12:48;13.60;;;5.23;;
72647;SDS011;60693;50.002;8.644;2022-08-21T05:15:14;11.03;;;4.83;;
72647;SDS011;60693;50.002;8.644;2022-08-21T05:17:40;12.63;;;4.90;;
72647;SDS011;60693;50.002;8.644;2022-08-21T05:20:07;10.85;;;4.68;;
72647;SDS011;60693;50.002;8.644;2022-08-21T05:22:34;14.13;;;5.40;;
72647;SDS011;60693;50.002;8.644;2022-08-21T05:24:59;11.63;;;4.97;;
72647;SDS011;60693;50.002;8.644;2022-08-21T05:27:25;10.83;;;4.93;;
72647;SDS011;60693;50.002;8.644;2022-08-21T05:29:51;15.37;;;4.90;;
72647;SDS011;60693;50.002;8.644;2022-08-21T05:32:16;13.87;;;4.50;;
72647;SDS011;60693;50.002;8.644;2022-08-21T05:34:42;12.48;;;4.75;;
72647;SDS011;60693;50.002;8.644;2022-08-21T05:37:10;14.13;;;5.18;;
72647;SDS011;60693;50.002;8.644;2022-08-21T05:39:37;12.13;;;4.77;;
72647;SDS011;60693;50.002;8.644;2022-08-21T05:42:02;11.30;;;4.38;;
72647;SDS011;60693;50.002;8.644;2022-08-21T05:44:28;13.33;;;5.03;;
72647;SDS011;60693;50.002;8.644;2022-08-21T05:46:54;13.30;;;5.13;;
72647;SDS011;60693;50.002;8.644;2022-08-21T05:49:19;12.93;;;4.87;;
72647;SDS011;60693;50.002;8.644;2022-08-21T05:51:45;13.30;;;4.75;;
72647;SDS011;60693;50.002;8.644;2022-08-21T05:54:11;13.10;;;4.50;;
72647;SDS011;60693;50.002;8.644;2022-08-21T05:56:36;11.95;;;4.47;;
72647;SDS011;60693;50.002;8.644;2022-08-21T05:59:02;9.73;;;4.50;;
72647;SDS011;60693;50.002;8.644;2022-08-21T06:01:29;11.10;;;4.03;;
72647;SDS011;60693;50.002;8.644;2022-08-21T06:03:55;17.50;;;3.88;;
72647;SDS011;60693;50.002;8.644;2022-08-21T06:06:20;14.33;;;4.30;;
72647;SDS011;60693;50.002;8.644;2022-08-21T06:08:46;12.80;;;3.80;;
72647;SDS011;60693;50.002;8.644;2022-08-21T06:11:11;14.57;;;4.60;;
72647;SDS011;60693;50.002;8.644;2022-08-21T06:13:37;12.30;;;3.33;;
72647;SDS011;60693;50.002;8.644;2022-08-21T06:16:08;10.80;;;3.80;;
72647;SDS011;60693;50.002;8.644;2022-08-21T06:18:38;11.98;;;3.80;;
72647;SDS011;60693;50.002;8.644;2022-08-21T06:21:04;10.85;;;3.88;;
72647;SDS011;60693;50.002;8.644;2022-08-21T06:23:30;13.83;;;3.67;;
72647;SDS011;60693;50.002;8.644;2022-08-21T06:25:56;12.75;;;3.80;;
72647;SDS011;60693;50.002;8.644;2022-08-21T06:28:22;14.02;;;3.40;;
72647;SDS011;60693;50.002;8.644;2022-08-21T06:30:47;14.63;;;3.85;;
72647;SDS011;60693;50.002;8.644;2022-08-21T06:33:13;12.03;;;3.87;;
72647;SDS011;60693;50.002;8.644;2022-08-21T06:35:39;11.25;;;3.50;;
72647;SDS011;60693;50.002;8.644;2022-08-21T06:38:04;14.13;;;3.60;;
72647;SDS011;60693;50.002;8.644;2022-08-21T06:40:30;10.68;;;3.58;;
72647;SDS011;60693;50.002;8.644;2022-08-21T06:42:57;10.97;;;4.00;;
72647;SDS011;60693;50.002;8.644;2022-08-21T06:45:23;16.10;;;4.85;;
72647;SDS011;60693;50.002;8.644;2022-08-21T06:47:49;10.90;;;3.40;;
72647;SDS011;60693;50.002;8.644;2022-08-21T06:50:15;12.55;;;3.80;;
72647;SDS011;60693;50.002;8.644;2022-08-21T06:52:41;12.97;;;3.80;;
72647;SDS011;60693;50.002;8.644;2022-08-21T06:55:07;11.83;;;4.10;;
72647;SDS011;60693;50.002;8.644;2022-08-21T06:57:34;11.87;;;4.40;;
72647;SDS011;60693;50.002;8.644;2022-08-21T07:00:00;10.35;;;3.45;;
72647;SDS011;60693;50.002;8.644;2022-08-21T07:02:26;13.02;;;4.10;;
72647;SDS011;60693;50.002;8.644;2022-08-21T07:04:52;11.33;;;4.20;;
72647;SDS011;60693;50.002;8.644;2022-08-21T07:07:18;15.48;;;4.57;;
72647;SDS011;60693;50.002;8.644;2022-08-21T07:09:43;11.07;;;4.23;;
72647;SDS011;60693;50.002;8.644;2022-08-21T07:12:09;11.75;;;4.70;;
72647;SDS011;60693;50.002;8.644;2022-08-21T07:14:35;10.77;;;4.03;;
72647;SDS011;60693;50.002;8.644;2022-08-21T07:17:01;12.05;;;4.45;;
72647;SDS011;60693;50.002;8.644;2022-08-21T07:19:27;14.50;;;5.00;;
72647;SDS011;60693;50.002;8.644;2022-08-21T07:21:54;14.25;;;5.10;;
72647;SDS011;60693;50.002;8.644;2022-08-21T07:24:23;12.57;;;4.10;;
72647;SDS011;60693;50.002;8.644;2022-08-21T07:26:48;12.52;;;4.38;;
72647;SDS011;60693;50.002;8.644;2022-08-21T07:29:14;11.13;;;4.73;;
72647;SDS011;60693;50.002;8.644;2022-08-21T07:31:40;13.95;;;4.80;;
72647;SDS011;60693;50.002;8.644;2022-08-21T07:34:05;12.93;;;5.50;;
72647;SDS011;60693;50.002;8.644;2022-08-21T07:36:31;13.18;;;4.80;;
72647;SDS011;60693;50.002;8.644;2022-08-21T07:38:57;13.47;;;4.47;;
72647;SDS011;60693;50.002;8.644;2022-08-21T07:41:25;11.85;;;5.35;;
72647;SDS011;60693;50.002;8.644;2022-08-21T07:43:54;13.67;;;6.17;;
72647;SDS011;60693;50.002;8.644;2022-08-21T07:46:23;12.35;;;4.93;;
72647;SDS011;60693;50.002;8.644;2022-08-21T07:48:49;14.63;;;5.53;;
72647;SDS011;60693;50.002;8.644;2022-08-21T07:51:17;12.82;;;5.90;;
72647;SDS011;60693;50.002;8.644;2022-08-21T07:53:50;15.02;;;5.50;;
72647;SDS011;60693;50.002;8.644;2022-08-21T07:56:17;16.37;;;5.40;;
72647;SDS011;60693;50.002;8.644;2022-08-21T07:58:43;14.05;;;7.05;;
72647;SDS011;60693;50.002;8.644;2022-08-21T08:01:08;13.63;;;6.70;;
72647;SDS011;60693;50.002;8.644;2022-08-21T08:03:34;14.33;;;6.10;;
72647;SDS011;60693;50.002;8.644;2022-08-21T08:06:00;12.90;;;6.70;;
72647;SDS011;60693;50.002;8.644;2022-08-21T08:08:25;14.07;;;6.20;;
72647;SDS011;60693;50.002;8.644;2022-08-21T08:10:51;12.38;;;6.18;;
72647;SDS011;60693;50.002;8.644;2022-08-21T08:13:18;13.27;;;6.13;;
72647;SDS011;60693;50.002;8.644;2022-08-21T08:15:44;14.13;;;6.38;;
72647;SDS011;60693;50.002;8.644;2022-08-21T08:18:10;12.57;;;5.82;;
72647;SDS011;60693;50.002;8.644;2022-08-21T08:20:35;10.43;;;5.30;;
72647;SDS011;60693;50.002;8.644;2022-08-21T08:23:01;11.30;;;5.53;;
72647;SDS011;60693;50.002;8.644;2022-08-21T08:25:27;13.18;;;5.75;;
72647;SDS011;60693;50.002;8.644;2022-08-21T08:27:53;13.55;;;5.50;;
72647;SDS011;60693;50.002;8.644;2022-08-21T08:30:19;12.48;;;5.28;;
72647;SDS011;60693;50.002;8.644;2022-08-21T08:32:47;12.73;;;5.82;;
72647;SDS011;60693;50.002;8.644;2022-08-21T08:35:12;12.87;;;5.87;;
72647;SDS011;60693;50.002;8.644;2022-08-21T08:37:39;13.27;;;5.53;;
72647;SDS011;60693;50.002;8.644;2022-08-21T08:40:06;14.10;;;6.03;;
72647;SDS011;60693;50.002;8.644;2022-08-21T08:42:36;12.73;;;5.95;;
72647;SDS011;60693;50.002;8.644;2022-08-21T08:45:12;13.23;;;5.60;;
72647;SDS011;60693;50.002;8.644;2022-08-21T08:47:50;12.95;;;5.47;;
72647;SDS011;60693;50.002;8.644;2022-08-21T08:53:05;11.10;;;5.20;;
72647;SDS011;60693;50.002;8.644;2022-08-21T08:58:02;11.80;;;5.47;;
72647;SDS011;60693;50.002;8.644;2022-08-21T09:00:28;11.48;;;5.18;;
72647;SDS011;60693;50.002;8.644;2022-08-21T09:02:56;12.15;;;4.60;;
72647;SDS011;60693;50.002;8.644;2022-08-21T09:05:25;10.50;;;3.97;;
72647;SDS011;60693;50.002;8.644;2022-08-21T09:07:59;10.75;;;4.00;;
72647;SDS011;60693;50.002;8.644;2022-08-21T09:21:35;11.68;;;4.50;;
72647;SDS011;60693;50.002;8.644;2022-08-21T09:24:16;10.40;;;3.92;;
72647;SDS011;60693;50.002;8.644;2022-08-21T09:27:14;10.15;;;3.60;;
72647;SDS011;60693;50.002;8.644;2022-08-21T09:29:43;11.63;;;4.60;;
72647;SDS011;60693;50.002;8.644;2022-08-21T09:37:33;10.75;;;4.07;;
72647;SDS011;60693;50.002;8.644;2022-08-21T09:40:02;12.90;;;3.70;;
72647;SDS011;60693;50.002;8.644;2022-08-21T09:43:03;9.43;;;4.10;;
72647;SDS011;60693;50.002;8.644;2022-08-21T09:45:31;12.37;;;3.53;;
72647;SDS011;60693;50.002;8.644;2022-08-21T09:51:05;11.30;;;3.50;;
72647;SDS011;60693;50.002;8.644;2022-08-21T09:53:32;9.95;;;3.20;;
72647;SDS011;60693;50.002;8.644;2022-08-21T09:56:14;10.53;;;3.53;;
72647;SDS011;60693;50.002;8.644;2022-08-21T09:59:11;12.20;;;3.78;;
72647;SDS011;60693;50.002;8.644;2022-08-21T10:01:43;9.65;;;3.30;;
72647;SDS011;60693;50.002;8.644;2022-08-21T10:04:10;9.30;;;3.55;;
72647;SDS011;60693;50.002;8.644;2022-08-21T10:06:37;13.02;;;3.50;;
72647;SDS011;60693;50.002;8.644;2022-08-21T10:09:07;10.27;;;3.27;;
72647;SDS011;60693;50.002;8.644;2022-08-21T10:11:35;10.23;;;3.20;;
72647;SDS011;60693;50.002;8.644;2022-08-21T10:19:21;9.77;;;3.17;;
72647;SDS011;60693;50.002;8.644;2022-08-21T10:22:03;8.05;;;2.58;;
72647;SDS011;60693;50.002;8.644;2022-08-21T10:24:45;9.52;;;2.80;;
72647;SDS011;60693;50.002;8.644;2022-08-21T10:27:22;9.55;;;3.17;;
72647;SDS011;60693;50.002;8.644;2022-08-21T10:29:56;12.07;;;2.80;;
72647;SDS011;60693;50.002;8.644;2022-08-21T10:38:22;11.05;;;2.97;;
72647;SDS011;60693;50.002;8.644;2022-08-21T10:46:15;9.95;;;2.75;;
72647;SDS011;60693;50.002;8.644;2022-08-21T10:48:59;8.65;;;2.78;;
72647;SDS011;60693;50.002;8.644;2022-08-21T10:54:11;8.13;;;2.70;;
72647;SDS011;60693;50.002;8.644;2022-08-21T10:56:40;9.70;;;3.00;;
72647;SDS011;60693;50.002;8.644;2022-08-21T11:04:26;11.27;;;2.70;;
72647;SDS011;60693;50.002;8.644;2022-08-21T11:07:00;9.35;;;3.08;;
72647;SDS011;60693;50.002;8.644;2022-08-21T11:09:43;10.67;;;2.63;;
72647;SDS011;60693;50.002;8.644;2022-08-21T11:14:51;11.65;;;3.20;;
72647;SDS011;60693;50.002;8.644;2022-08-21T11:17:43;9.95;;;3.10;;
72647;SDS011;60693;50.002;8.644;2022-08-21T11:20:16;9.35;;;3.05;;
72647;SDS011;60693;50.002;8.644;2022-08-21T11:23:09;11.13;;;2.93;;
72647;SDS011;60693;50.002;8.644;2022-08-21T11:25:40;10.13;;;3.15;;
72647;SDS011;60693;50.002;8.644;2022-08-21T11:28:11;12.15;;;3.05;;
72647;SDS011;60693;50.002;8.644;2022-08-21T11:30:52;10.63;;;2.90;;
72647;SDS011;60693;50.002;8.644;2022-08-21T11:38:42;10.15;;;3.03;;
72647;SDS011;60693;50.002;8.644;2022-08-21T11:41:34;10.43;;;3.17;;
72647;SDS011;60693;50.002;8.644;2022-08-21T11:44:12;8.82;;;3.20;;
72647;SDS011;60693;50.002;8.644;2022-08-21T11:46:46;10.77;;;2.80;;
72647;SDS011;60693;50.002;8.644;2022-08-21T11:54:47;10.63;;;2.65;;
72647;SDS011;60693;50.002;8.644;2022-08-21T11:57:31;11.40;;;2.63;;
72647;SDS011;60693;50.002;8.644;2022-08-21T12:02:52;8.90;;;3.00;;
72647;SDS011;60693;50.002;8.644;2022-08-21T12:05:25;11.93;;;3.00;;
72647;SDS011;60693;50.002;8.644;2022-08-21T12:08:56;8.95;;;2.38;;
72647;SDS011;60693;50.002;8.644;2022-08-21T12:13:59;9.98;;;2.90;;
72647;SDS011;60693;50.002;8.644;2022-08-21T12:16:38;9.50;;;2.80;;
72647;SDS011;60693;50.002;8.644;2022-08-21T12:19:10;10.30;;;2.80;;
72647;SDS011;60693;50.002;8.644;2022-08-21T12:24:32;10.90;;;3.17;;
72647;SDS011;60693;50.002;8.644;2022-08-21T12:27:21;8.35;;;2.63;;
72647;SDS011;60693;50.002;8.644;2022-08-21T12:29:56;9.20;;;2.83;;
72647;SDS011;60693;50.002;8.644;2022-08-21T12:32:29;10.13;;;2.80;;
72647;SDS011;60693;50.002;8.644;2022-08-21T12:37:48;9.60;;;3.20;;
72647;SDS011;60693;50.002;8.644;2022-08-21T12:42:47;9.73;;;3.00;;
72647;SDS011;60693;50.002;8.644;2022-08-21T12:45:19;9.60;;;2.83;;
72647;SDS011;60693;50.002;8.644;2022-08-21T12:50:41;8.88;;;2.58;;
72647;SDS011;60693;50.002;8.644;2022-08-21T12:55:50;7.60;;;2.57;;
72647;SDS011;60693;50.002;8.644;2022-08-21T12:58:17;9.93;;;2.53;;
72647;SDS011;60693;50.002;8.644;2022-08-21T13:00:47;10.05;;;2.60;;
72647;SDS011;60693;50.002;8.644;2022-08-21T13:03:15;15.17;;;2.93;;
72647;SDS011;60693;50.002;8.644;2022-08-21T13:05:41;8.52;;;2.63;;
72647;SDS011;60693;50.002;8.644;2022-08-21T13:08:07;11.77;;;4.03;;
72647;SDS011;60693;50.002;8.644;2022-08-21T13:10:35;11.32;;;2.75;;
72647;SDS011;60693;50.002;8.644;2022-08-21T13:13:02;11.10;;;2.78;;
72647;SDS011;60693;50.002;8.644;2022-08-21T13:15:30;9.30;;;2.80;;
72647;SDS011;60693;50.002;8.644;2022-08-21T13:17:57;10.88;;;3.45;;
72647;SDS011;60693;50.002;8.644;2022-08-21T13:20:29;12.38;;;2.85;;
72647;SDS011;60693;50.002;8.644;2022-08-21T13:23:00;10.98;;;3.03;;
72647;SDS011;60693;50.002;8.644;2022-08-21T13:25:29;9.63;;;2.83;;
72647;SDS011;60693;50.002;8.644;2022-08-21T13:28:16;9.03;;;2.63;;
72647;SDS011;60693;50.002;8.644;2022-08-21T13:30:42;9.55;;;2.55;;
72647;SDS011;60693;50.002;8.644;2022-08-21T13:33:26;8.82;;;2.90;;
72647;SDS011;60693;50.002;8.644;2022-08-21T13:38:22;8.73;;;2.67;;
72647;SDS011;60693;50.002;8.644;2022-08-21T13:43:18;7.03;;;2.38;;
72647;SDS011;60693;50.002;8.644;2022-08-21T13:45:53;9.30;;;2.90;;
72647;SDS011;60693;50.002;8.644;2022-08-21T13:48:20;8.98;;;2.70;;
72647;SDS011;60693;50.002;8.644;2022-08-21T13:50:47;12.32;;;2.58;;
72647;SDS011;60693;50.002;8.644;2022-08-21T13:53:23;8.45;;;2.30;;
72647;SDS011;60693;50.002;8.644;2022-08-21T13:55:49;8.23;;;2.13;;
72647;SDS011;60693;50.002;8.644;2022-08-21T13:58:23;8.47;;;2.37;;
72647;SDS011;60693;50.002;8.644;2022-08-21T14:03:47;11.13;;;2.63;;
72647;SDS011;60693;50.002;8.644;2022-08-21T14:06:20;9.75;;;2.33;;
72647;SDS011;60693;50.002;8.644;2022-08-21T14:08:48;11.33;;;2.40;;
72647;SDS011;60693;50.002;8.644;2022-08-21T14:11:16;9.02;;;2.10;;
72647;SDS011;60693;50.002;8.644;2022-08-21T14:13:48;8.52;;;2.63;;
72647;SDS011;60693;50.002;8.644;2022-08-21T14:16:26;8.45;;;2.10;;
72647;SDS011;60693;50.002;8.644;2022-08-21T14:21:30;9.23;;;2.60;;
72647;SDS011;60693;50.002;8.644;2022-08-21T14:24:05;10.90;;;2.45;;
72647;SDS011;60693;50.002;8.644;2022-08-21T14:26:32;9.05;;;2.55;;
72647;SDS011;60693;50.002;8.644;2022-08-21T14:29:00;8.40;;;2.38;;
72647;SDS011;60693;50.002;8.644;2022-08-21T14:31:28;11.30;;;2.60;;
72647;SDS011;60693;50.002;8.644;2022-08-21T14:33:55;9.60;;;2.60;;
72647;SDS011;60693;50.002;8.644;2022-08-21T14:36:20;7.40;;;2.30;;
72647;SDS011;60693;50.002;8.644;2022-08-21T14:38:46;10.60;;;2.40;;
72647;SDS011;60693;50.002;8.644;2022-08-21T14:41:18;8.52;;;2.63;;
72647;SDS011;60693;50.002;8.644;2022-08-21T14:43:47;11.32;;;2.92;;
72647;SDS011;60693;50.002;8.644;2022-08-21T14:46:20;10.17;;;2.20;;
72647;SDS011;60693;50.002;8.644;2022-08-21T14:48:48;8.65;;;2.40;;
72647;SDS011;60693;50.002;8.644;2022-08-21T14:51:14;8.98;;;2.58;;
72647;SDS011;60693;50.002;8.644;2022-08-21T14:53:40;8.73;;;2.50;;
72647;SDS011;60693;50.002;8.644;2022-08-21T14:56:06;9.68;;;2.22;;
72647;SDS011;60693;50.002;8.644;2022-08-21T14:58:33;7.82;;;2.20;;
72647;SDS011;60693;50.002;8.644;2022-08-21T15:01:00;9.03;;;2.00;;
72647;SDS011;60693;50.002;8.644;2022-08-21T15:03:29;8.45;;;2.47;;
72647;SDS011;60693;50.002;8.644;2022-08-21T15:05:55;10.15;;;3.20;;
72647;SDS011;60693;50.002;8.644;2022-08-21T15:08:21;9.93;;;3.47;;
72647;SDS011;60693;50.002;8.644;2022-08-21T15:10:47;8.57;;;2.60;;
72647;SDS011;60693;50.002;8.644;2022-08-21T15:13:13;10.60;;;2.72;;
72647;SDS011;60693;50.002;8.644;2022-08-21T15:15:40;8.00;;;2.40;;
72647;SDS011;60693;50.002;8.644;2022-08-21T15:18:07;8.35;;;2.40;;
72647;SDS011;60693;50.002;8.644;2022-08-21T15:20:33;8.65;;;2.10;;
72647;SDS011;60693;50.002;8.644;2022-08-21T15:22:59;8.73;;;2.10;;
72647;SDS011;60693;50.002;8.644;2022-08-21T15:25:25;8.83;;;2.27;;
72647;SDS011;60693;50.002;8.644;2022-08-21T15:27:51;7.68;;;1.90;;
72647;SDS011;60693;50.002;8.644;2022-08-21T15:30:17;9.80;;;2.20;;
72647;SDS011;60693;50.002;8.644;2022-08-21T15:32:43;7.73;;;2.10;;
72647;SDS011;60693;50.002;8.644;2022-08-21T15:35:09;7.95;;;2.40;;
72647;SDS011;60693;50.002;8.644;2022-08-21T15:37:35;9.00;;;2.20;;
72647;SDS011;60693;50.002;8.644;2022-08-21T15:40:01;10.60;;;2.47;;
72647;SDS011;60693;50.002;8.644;2022-08-21T15:42:28;11.55;;;3.47;;
72647;SDS011;60693;50.002;8.644;2022-08-21T15:44:54;9.63;;;2.33;;
72647;SDS011;60693;50.002;8.644;2022-08-21T15:47:22;9.77;;;2.73;;
72647;SDS011;60693;50.002;8.644;2022-08-21T15:49:50;11.38;;;3.10;;
72647;SDS011;60693;50.002;8.644;2022-08-21T15:52:16;8.00;;;2.88;;
72647;SDS011;60693;50.002;8.644;2022-08-21T15:54:43;8.37;;;2.83;;
72647;SDS011;60693;50.002;8.644;2022-08-21T15:57:13;10.40;;;1.95;;
72647;SDS011;60693;50.002;8.644;2022-08-21T15:59:41;8.95;;;2.20;;
72647;SDS011;60693;50.002;8.644;2022-08-21T16:02:11;8.93;;;2.00;;
72647;SDS011;60693;50.002;8.644;2022-08-21T16:04:39;10.75;;;2.30;;
72647;SDS011;60693;50.002;8.644;2022-08-21T16:07:05;8.32;;;2.45;;
72647;SDS011;60693;50.002;8.644;2022-08-21T16:09:31;8.80;;;2.90;;
72647;SDS011;60693;50.002;8.644;2022-08-21T16:11:58;7.53;;;2.55;;
72647;SDS011;60693;50.002;8.644;2022-08-21T16:14:24;9.00;;;2.50;;
72647;SDS011;60693;50.002;8.644;2022-08-21T16:16:50;9.10;;;2.05;;
72647;SDS011;60693;50.002;8.644;2022-08-21T16:19:16;9.35;;;2.10;;